Time;durP1;ratioP1;P1;durP2;ratioP2;P2;SDS_P1;SDS_P2;PMS_P1;PMS_P2;Temp;Humidity;BMP_temperature;BMP_pressure;BME280_temperature;BME280_humidity;BME280_pressure;Samples;Min_cycle;Max_cycle;Signal;HPM_P1;HPM_P2
2022/04/02 00:01:14;;;;;;;6.30;1.20;;;;;;;15.96;43.68;95221.97;5135309;27;20064;-32
2022/04/02 00:03:40;;;;;;;4.68;1.15;;;;;;;15.95;43.85;95225.94;5136070;27;20122;-31
2022/04/02 00:06:06;;;;;;;6.90;1.30;;;;;;;15.95;43.63;95220.47;5117595;27;20027;-32
2022/04/02 00:08:32;;;;;;;4.43;1.50;;;;;;;15.94;43.47;95219.00;5135879;27;20046;-31
2022/04/02 00:10:58;;;;;;;4.95;1.20;;;;;;;15.95;43.36;95215.00;5135910;27;20023;-31
2022/04/02 00:13:23;;;;;;;6.82;1.10;;;;;;;15.95;43.53;95217.72;5135797;27;20026;-31
2022/04/02 00:15:49;;;;;;;5.18;1.10;;;;;;;15.96;43.36;95221.97;5135909;27;20028;-31
2022/04/02 00:18:15;;;;;;;3.63;1.23;;;;;;;15.99;43.14;95218.25;5135649;27;20083;-31
2022/04/02 00:20:41;;;;;;;5.72;1.05;;;;;;;15.92;43.12;95216.00;5135803;27;20023;-33
2022/04/02 00:25:51;;;;;;;7.43;1.25;;;;;;;15.80;43.26;95211.72;5135678;27;20575;-32
2022/04/02 00:28:16;;;;;;;3.92;1.13;;;;;;;15.78;43.54;95217.66;5135991;27;20059;-31
2022/04/02 00:30:43;;;;;;;5.93;1.60;;;;;;;15.80;43.19;95214.44;5135701;27;20475;-31
2022/04/02 00:33:08;;;;;;;2.97;0.88;;;;;;;15.83;43.12;95213.44;5135543;27;20023;-31
2022/04/02 00:35:34;;;;;;;5.47;1.27;;;;;;;15.79;43.12;95213.69;5135851;27;20026;-31
2022/04/02 00:37:59;;;;;;;4.28;1.10;;;;;;;15.87;42.89;95211.25;5135466;27;20027;-31
2022/04/02 00:40:25;;;;;;;4.88;0.95;;;;;;;15.86;43.39;95222.66;5134871;27;20021;-31
2022/04/02 00:42:51;;;;;;;4.55;1.00;;;;;;;15.81;43.10;95213.22;5134199;27;20095;-31
2022/04/02 00:45:16;;;;;;;2.42;0.85;;;;;;;15.80;42.79;95214.44;5134401;27;20034;-31
2022/04/02 00:47:42;;;;;;;5.10;0.90;;;;;;;15.81;42.45;95210.47;5134571;27;20019;-31
2022/04/02 00:50:08;;;;;;;4.32;1.00;;;;;;;15.84;42.69;95211.47;5134421;27;20488;-31
2022/04/02 00:52:34;;;;;;;3.45;1.00;;;;;;;15.87;42.25;95224.16;5134869;27;20027;-31
2022/04/02 00:55:00;;;;;;;5.50;1.10;;;;;;;15.78;42.70;95225.13;5135073;27;20053;-31
2022/04/02 00:57:25;;;;;;;4.13;1.02;;;;;;;15.75;42.85;95223.34;5135243;27;20023;-31
2022/04/02 00:59:51;;;;;;;7.15;1.30;;;;;;;15.77;42.31;95220.88;5135014;27;20027;-31
2022/04/02 01:02:19;;;;;;;3.40;1.20;;;;;;;15.76;42.45;95220.13;5134642;27;20452;-31
2022/04/02 01:04:46;;;;;;;4.10;0.98;;;;;;;15.75;42.33;95220.63;5134779;27;20039;-31
2022/04/02 01:07:12;;;;;;;4.60;1.27;;;;;;;15.76;42.05;95219.38;5134820;27;20026;-31
2022/04/02 01:09:38;;;;;;;3.88;1.00;;;;;;;15.70;42.29;95224.09;5134755;27;20019;-31
2022/04/02 01:12:05;;;;;;;3.88;1.20;;;;;;;15.70;42.10;95221.34;5134422;27;20356;-31
2022/04/02 01:14:31;;;;;;;6.07;1.35;;;;;;;15.75;42.09;95228.81;5134633;27;20029;-31
2022/04/02 01:16:56;;;;;;;4.40;1.38;;;;;;;15.76;41.97;95222.88;5134587;27;20101;-31
2022/04/02 01:19:22;;;;;;;6.00;1.17;;;;;;;15.71;41.98;95218.13;5134890;27;20075;-31
2022/04/02 01:21:49;;;;;;;5.88;1.13;;;;;;;15.79;42.28;95218.41;5134473;27;20026;-31
2022/04/02 01:24:14;;;;;;;3.65;1.00;;;;;;;15.77;41.96;95227.09;5134660;27;20023;-31
2022/04/02 01:26:40;;;;;;;5.03;1.17;;;;;;;15.77;42.02;95232.56;5134654;27;20479;-31
2022/04/02 01:29:06;;;;;;;3.65;0.90;;;;;;;15.73;42.21;95226.56;5115998;27;20441;-32
2022/04/02 01:31:33;;;;;;;4.32;0.70;;;;;;;15.62;42.62;95236.69;5116112;27;20023;-31
2022/04/02 01:33:58;;;;;;;6.90;1.67;;;;;;;15.62;42.39;95233.97;5134205;27;20460;-31
2022/04/02 01:36:24;;;;;;;3.00;1.02;;;;;;;15.58;42.54;95228.00;5134286;27;20037;-31
2022/04/02 01:38:50;;;;;;;7.88;1.38;;;;;;;15.58;42.06;95241.66;5134148;27;20023;-31
2022/04/02 01:41:17;;;;;;;4.63;1.20;;;;;;;15.49;42.29;95228.13;5134459;27;20019;-31
2022/04/02 01:43:42;;;;;;;5.53;1.17;;;;;;;15.56;42.48;95233.19;5134402;27;20462;-31
2022/04/02 01:46:09;;;;;;;4.82;1.23;;;;;;;15.62;41.96;95236.69;5134492;27;20030;-31
2022/04/02 01:48:35;;;;;;;5.75;1.20;;;;;;;15.63;41.91;95243.66;5134150;27;20467;-31
2022/04/02 01:51:01;;;;;;;5.07;1.08;;;;;;;15.59;41.87;95240.41;5134176;27;20080;-31
2022/04/02 01:53:30;;;;;;;4.30;1.40;;;;;;;15.56;41.75;95238.66;5134150;27;20023;-31
2022/04/02 01:55:56;;;;;;;4.97;1.42;;;;;;;15.53;41.96;95234.13;5133876;27;20031;-32
2022/04/02 01:58:22;;;;;;;3.58;1.20;;;;;;;15.49;42.18;95231.63;5134164;27;20098;-31
2022/04/02 02:00:47;;;;;;;3.95;1.33;;;;;;;15.54;41.82;95233.66;5134293;27;20118;-32
2022/04/02 02:03:13;;;;;;;4.88;1.02;;;;;;;15.46;42.09;95227.13;5133888;27;20054;-31
2022/04/02 02:05:39;;;;;;;6.65;1.45;;;;;;;15.40;42.15;95232.56;5133958;27;20015;-31
2022/04/02 02:08:05;;;;;;;6.88;1.15;;;;;;;15.48;42.05;95232.09;5134212;27;20038;-31
2022/04/02 02:10:32;;;;;;;3.67;0.90;;;;;;;15.50;41.81;95240.56;5134021;27;20026;-31
2022/04/02 02:12:59;;;;;;;3.17;0.93;;;;;;;15.53;42.00;95234.13;5134330;27;20023;-31
2022/04/02 02:15:26;;;;;;;7.63;1.25;;;;;;;15.49;41.94;95236.34;5133866;27;20091;-32
2022/04/02 02:17:53;;;;;;;4.60;1.20;;;;;;;15.54;42.00;95232.91;5115715;28;20023;-31
2022/04/02 02:20:19;;;;;;;4.38;1.52;;;;;;;15.42;42.09;95224.63;5134005;27;20139;-31
2022/04/02 02:22:45;;;;;;;4.43;1.17;;;;;;;15.48;41.73;95212.97;5134388;27;20464;-31
2022/04/02 02:25:13;;;;;;;2.85;0.90;;;;;;;15.44;42.15;95215.97;5138262;27;20106;-31
2022/04/02 02:27:40;;;;;;;3.63;0.98;;;;;;;15.49;41.73;95223.41;5138000;27;20023;-31
2022/04/02 02:30:07;;;;;;;6.95;1.38;;;;;;;15.50;41.61;95229.63;5137774;27;20023;-31
2022/04/02 02:32:36;;;;;;;4.10;1.05;;;;;;;15.46;41.99;95233.34;5138146;27;20088;-31
2022/04/02 02:38:09;;;;;;;4.43;1.00;;;;;;;15.44;41.89;95213.22;5138079;27;20045;-31
2022/04/02 02:40:35;;;;;;;;;;;;;;;15.50;41.65;95218.72;5138383;27;20153;-31
2022/04/02 02:43:01;;;;;;;4.05;1.20;;;;;;;15.49;41.56;95217.22;5137710;27;19916;-31
2022/04/02 02:45:27;;;;;;;4.68;1.25;;;;;;;15.47;41.30;95225.88;5137427;27;20018;-31
2022/04/02 02:47:54;;;;;;;4.22;1.15;;;;;;;15.36;41.81;95221.09;5137674;27;20023;-31
2022/04/02 02:50:21;;;;;;;3.33;0.95;;;;;;;15.45;41.30;95222.91;5137580;27;20103;-31
2022/04/02 02:52:46;;;;;;;2.05;0.95;;;;;;;15.36;41.77;95228.56;5137400;27;20059;-31
2022/04/02 02:55:12;;;;;;;5.10;1.00;;;;;;;15.35;41.74;95219.59;5137187;27;20042;-31
2022/04/02 02:57:39;;;;;;;4.47;1.08;;;;;;;15.39;41.35;95222.88;5137716;27;20019;-31
2022/04/02 03:00:07;;;;;;;5.32;0.90;;;;;;;15.42;41.52;95229.34;5137395;27;20019;-31
2022/04/02 03:02:33;;;;;;;3.17;0.80;;;;;;;15.44;41.36;95213.97;5137123;27;20039;-32
2022/04/02 03:04:59;;;;;;;3.50;1.20;;;;;;;15.33;41.47;95215.88;5137180;27;20099;-32
2022/04/02 03:07:25;;;;;;;3.28;1.10;;;;;;;15.42;41.41;95210.97;5137203;27;20019;-31
2022/04/02 03:09:51;;;;;;;2.83;0.98;;;;;;;15.37;41.44;95211.69;5137104;27;20050;-31
2022/04/02 03:12:17;;;;;;;5.40;1.00;;;;;;;15.42;41.21;95221.91;5137104;27;20019;-32
2022/04/02 03:14:42;;;;;;;3.03;0.95;;;;;;;15.50;41.22;95218.72;5136993;27;20028;-31
2022/04/02 03:17:09;;;;;;;3.28;0.95;;;;;;;15.44;41.16;95208.50;5137018;27;20023;-31
2022/04/02 03:19:35;;;;;;;6.20;1.25;;;;;;;15.44;41.45;95202.28;5136819;27;20022;-31
2022/04/02 03:22:01;;;;;;;4.57;1.00;;;;;;;15.49;41.45;95196.09;5136963;27;20485;-31
2022/04/02 03:24:26;;;;;;;4.45;0.98;;;;;;;15.43;41.01;95209.75;5137092;27;20368;-31
2022/04/02 03:26:52;;;;;;;5.43;1.08;;;;;;;15.55;41.26;95207.09;5136662;27;20030;-31
2022/04/02 03:29:18;;;;;;;3.95;0.90;;;;;;;15.47;40.84;95212.22;5136756;27;20031;-31
2022/04/02 03:31:44;;;;;;;4.55;1.02;;;;;;;15.51;40.94;95214.75;5136779;27;20391;-31
2022/04/02 03:34:10;;;;;;;1.70;0.73;;;;;;;15.38;41.37;95207.72;5136297;27;20026;-31
2022/04/02 03:36:37;;;;;;;4.40;1.13;;;;;;;15.39;41.29;95208.47;5136570;27;20320;-31
2022/04/02 03:39:03;;;;;;;5.47;1.00;;;;;;;15.37;41.08;95206.22;5136467;27;20079;-31
2022/04/02 03:41:28;;;;;;;4.65;1.02;;;;;;;15.29;41.35;95198.97;5136433;27;20023;-31
2022/04/02 03:43:56;;;;;;;5.88;1.25;;;;;;;15.40;41.20;95201.75;5136433;27;20102;-32
2022/04/02 03:49:06;;;;;;;2.97;1.00;;;;;;;15.42;40.92;95194.59;5136666;27;20034;-31
2022/04/02 03:51:31;;;;;;;4.53;0.93;;;;;;;15.36;41.08;95201.97;5136370;27;20019;-31
2022/04/02 03:53:59;;;;;;;4.45;0.95;;;;;;;15.38;40.98;95202.25;5136369;27;20459;-31
2022/04/02 03:56:25;;;;;;;4.03;1.17;;;;;;;15.40;41.19;95199.03;5136207;27;20027;-31
2022/04/02 03:58:51;;;;;;;4.50;1.00;;;;;;;15.29;41.42;95205.19;5136296;27;20064;-31
2022/04/02 04:01:16;;;;;;;5.53;1.23;;;;;;;15.35;40.85;95205.94;5136036;27;20482;-31
2022/04/02 04:03:42;;;;;;;3.63;0.88;;;;;;;15.35;40.88;95211.41;5136045;27;20518;-31
2022/04/02 04:06:09;;;;;;;3.47;0.80;;;;;;;15.23;41.22;95203.63;5136170;27;20127;-31
2022/04/02 04:08:39;;;;;;;4.70;1.10;;;;;;;15.33;40.99;95204.97;5135866;27;20035;-31
2022/04/02 04:11:05;;;;;;;6.15;1.00;;;;;;;15.28;41.11;95195.47;5136326;27;20019;-31
2022/04/02 04:13:30;;;;;;;3.55;1.17;;;;;;;15.35;40.98;95197.75;5135926;27;20520;-31
2022/04/02 04:15:56;;;;;;;2.75;1.00;;;;;;;15.33;41.22;95208.41;5135671;27;20023;-31
2022/04/02 04:18:22;;;;;;;4.40;1.30;;;;;;;15.41;40.42;95206.00;5135869;27;20027;-31
2022/04/02 04:20:49;;;;;;;7.35;1.15;;;;;;;15.36;40.20;95209.44;5136125;27;20030;-31
2022/04/02 04:23:15;;;;;;;3.63;0.95;;;;;;;15.37;40.74;95197.28;5135515;27;20027;-31
2022/04/02 04:25:40;;;;;;;4.00;1.00;;;;;;;15.23;40.59;95201.66;5135536;27;20079;-31
2022/04/02 04:28:06;;;;;;;7.03;1.02;;;;;;;15.28;40.66;95205.66;5135622;27;20027;-31
2022/04/02 04:30:32;;;;;;;4.07;1.30;;;;;;;15.26;40.37;95197.94;5135532;27;20046;-31
2022/04/02 04:32:58;;;;;;;3.15;0.80;;;;;;;15.28;39.57;95187.28;5135477;27;20053;-31
2022/04/02 04:35:25;;;;;;;6.57;1.83;;;;;;;15.24;39.88;95199.66;5116741;27;20024;-31
2022/04/02 04:37:51;;;;;;;7.22;1.33;;;;;;;15.20;40.10;95191.72;5135347;27;20167;-31
2022/04/02 04:40:17;;;;;;;3.28;0.90;;;;;;;15.21;39.99;95201.38;5135285;27;20027;-31
2022/04/02 04:42:43;;;;;;;5.95;1.15;;;;;;;15.20;40.16;95204.63;5135558;27;20023;-31
2022/04/02 04:45:09;;;;;;;3.97;1.10;;;;;;;15.18;40.11;95207.84;5134835;27;20016;-31
2022/04/02 04:47:35;;;;;;;4.47;1.45;;;;;;;15.16;39.79;95204.09;5134986;27;20379;-31
2022/04/02 04:50:00;;;;;;;6.45;1.02;;;;;;;15.07;39.70;95194.09;5134045;27;20034;-31
2022/04/02 04:52:26;;;;;;;3.67;0.82;;;;;;;15.12;39.35;95201.56;5133263;27;20034;-31
2022/04/02 04:54:52;;;;;;;5.20;1.00;;;;;;;15.15;39.30;95192.41;5133325;27;20027;-31
2022/04/02 04:57:17;;;;;;;3.20;1.00;;;;;;;14.97;40.00;95188.03;5133039;27;20023;-31
2022/04/02 04:59:43;;;;;;;6.32;1.02;;;;;;;14.89;39.36;95202.63;5133044;27;20382;-31
2022/04/02 05:02:12;;;;;;;2.78;0.90;;;;;;;14.84;39.67;95209.53;5132726;27;20134;-31
2022/04/02 05:04:38;;;;;;;5.00;1.10;;;;;;;14.87;39.18;95207.81;5114536;27;20058;-31
2022/04/02 05:07:04;;;;;;;5.18;1.17;;;;;;;14.85;39.31;95251.22;5133141;27;20046;-31
2022/04/02 05:09:30;;;;;;;6.55;1.17;;;;;;;14.81;39.38;95221.44;5133124;27;20027;-31
2022/04/02 05:11:57;;;;;;;4.78;1.05;;;;;;;14.73;39.58;95218.38;5132897;27;20023;-32
2022/04/02 05:14:23;;;;;;;6.55;1.08;;;;;;;14.87;39.23;95205.09;5132754;27;20038;-31
2022/04/02 05:16:51;;;;;;;6.55;1.27;;;;;;;14.89;39.54;95243.56;5132760;27;20108;-31
2022/04/02 05:19:17;;;;;;;5.53;1.27;;;;;;;14.97;39.53;95223.53;5114259;27;20030;-31
2022/04/02 05:21:42;;;;;;;5.30;1.33;;;;;;;14.90;39.62;95240.38;5132654;27;20030;-31
2022/04/02 05:24:08;;;;;;;4.18;1.30;;;;;;;14.74;40.06;95217.13;5132684;27;20027;-31
2022/04/02 05:26:33;;;;;;;2.17;0.90;;;;;;;14.80;40.00;95235.56;5114005;27;20105;-31
2022/04/02 05:28:59;;;;;;;6.53;1.20;;;;;;;14.79;39.95;95231.31;5132851;27;20023;-31
2022/04/02 05:31:25;;;;;;;5.32;2.00;;;;;;;14.77;40.40;95237.25;5132708;27;20520;-31
2022/04/02 05:33:51;;;;;;;10.93;4.30;;;;;;;14.65;40.67;95230.22;5132449;27;20084;-31
2022/04/02 05:36:16;;;;;;;11.98;4.22;;;;;;;14.56;41.00;95263.88;5132575;27;20015;-31
2022/04/02 05:38:42;;;;;;;13.25;4.82;;;;;;;14.54;41.24;95241.75;5132302;27;20019;-31
2022/04/02 05:41:08;;;;;;;17.42;7.25;;;;;;;14.59;41.39;95227.41;5132440;27;20027;-31
2022/04/02 05:43:34;;;;;;;24.45;10.60;;;;;;;14.50;41.58;95241.22;5132524;27;20474;-31
2022/04/02 05:45:59;;;;;;;20.25;8.00;;;;;;;14.49;41.86;95228.06;5132448;27;20071;-31
2022/04/02 05:48:25;;;;;;;16.23;7.68;;;;;;;14.47;42.00;95239.44;5132264;27;20049;-32
2022/04/02 05:50:51;;;;;;;16.35;7.70;;;;;;;14.57;41.78;95229.91;5130639;27;20015;-31
2022/04/02 05:53:17;;;;;;;14.20;6.20;;;;;;;14.56;41.89;95228.41;5132415;27;20031;-31
2022/04/02 05:55:43;;;;;;;15.27;6.53;;;;;;;14.66;41.84;95237.91;5132328;27;20023;-31
2022/04/02 05:58:11;;;;;;;13.45;5.80;;;;;;;14.68;41.78;95235.47;5133507;27;20421;-31
2022/04/02 06:00:37;;;;;;;11.07;4.70;;;;;;;14.64;41.96;95239.63;5136791;27;20047;-31
2022/04/02 06:03:03;;;;;;;12.55;4.50;;;;;;;14.64;41.74;95234.91;5136364;27;20067;-31
2022/04/02 06:05:29;;;;;;;10.75;4.32;;;;;;;14.63;41.69;95252.50;5136455;27;20072;-31
2022/04/02 06:07:55;;;;;;;11.57;4.70;;;;;;;14.63;41.85;95244.31;5136596;27;20034;-31
2022/04/02 06:10:20;;;;;;;10.25;3.92;;;;;;;14.59;41.86;95230.13;5136247;27;20382;-31
2022/04/02 06:12:50;;;;;;;8.63;2.83;;;;;;;14.53;42.09;95229.34;5136279;27;20109;-31
2022/04/02 06:15:16;;;;;;;8.13;2.88;;;;;;;14.47;42.14;95253.06;5135866;27;20027;-31
2022/04/02 06:17:41;;;;;;;6.30;2.22;;;;;;;14.21;42.57;95246.81;5136268;27;20420;-31
2022/04/02 06:20:08;;;;;;;4.20;2.00;;;;;;;14.42;41.92;95255.75;5136373;27;20034;-31
2022/04/02 06:22:34;;;;;;;6.93;2.17;;;;;;;13.39;41.94;95310.59;5136090;27;20026;-31
2022/04/02 06:25:00;;;;;;;6.78;1.70;;;;;;;13.58;42.53;95366.38;5117745;27;20033;-31
2022/04/02 06:27:26;;;;;;;10.10;1.52;;;;;;;13.19;44.29;95289.50;5135874;27;20433;-31
2022/04/02 06:29:52;;;;;;;5.82;1.40;;;;;;;13.29;43.64;95278.03;5135922;27;20027;-31
2022/04/02 06:32:20;;;;;;;9.43;1.77;;;;;;;13.77;42.22;95280.47;5135786;27;20071;-31
2022/04/02 06:34:46;;;;;;;5.55;1.40;;;;;;;13.88;41.64;95271.69;5125878;27;20024;-31
2022/04/02 06:37:12;;;;;;;5.63;1.17;;;;;;;13.74;41.53;95275.19;5115298;28;20023;-31
2022/04/02 06:39:37;;;;;;;5.38;1.15;;;;;;;13.96;40.85;95292.63;5115024;28;20030;-31
2022/04/02 06:42:03;;;;;;;4.80;0.82;;;;;;;13.61;41.09;95275.50;5115411;28;20023;-32
2022/04/02 06:44:29;;;;;;;3.90;1.10;;;;;;;13.91;40.13;95287.09;5115244;28;20023;-31
2022/04/02 06:46:56;;;;;;;4.47;0.93;;;;;;;14.09;39.87;95289.56;5115055;28;20023;-31
2022/04/02 06:49:22;;;;;;;2.25;0.68;;;;;;;13.95;39.86;95285.69;5113177;28;20665;-31
2022/04/02 06:51:48;;;;;;;1.30;0.65;;;;;;;13.96;39.93;95302.78;5114878;28;20038;-31
2022/04/02 06:54:13;;;;;;;4.85;1.00;;;;;;;14.08;39.53;95290.03;5115048;28;20043;-31
2022/04/02 06:56:40;;;;;;;2.83;0.80;;;;;;;13.94;39.34;95294.31;5114514;28;20020;-31
2022/04/02 06:59:06;;;;;;;1.75;0.70;;;;;;;14.08;39.44;95298.22;5114831;28;20384;-31
2022/04/02 07:01:31;;;;;;;3.65;0.80;;;;;;;14.15;39.14;95303.25;5114910;28;20027;-31
2022/04/02 07:03:57;;;;;;;5.45;0.90;;;;;;;14.17;39.34;95306.25;5114398;28;20044;-31
2022/04/02 07:06:23;;;;;;;2.92;0.80;;;;;;;14.09;39.31;95286.09;5114729;28;20045;-31
2022/04/02 07:08:49;;;;;;;1.52;0.60;;;;;;;14.02;39.38;95296.16;5114119;28;20023;-32
2022/04/02 07:11:14;;;;;;;2.70;0.77;;;;;;;13.91;39.64;95327.97;5114739;28;20020;-31
2022/04/02 07:13:40;;;;;;;2.53;0.88;;;;;;;13.86;39.41;95304.09;5114529;28;20027;-31
2022/04/02 07:16:06;;;;;;;4.32;1.38;;;;;;;14.09;39.24;95316.84;5114651;28;20424;-31
2022/04/02 07:18:33;;;;;;;2.80;1.30;;;;;;;13.88;39.80;95328.91;5114445;28;20067;-31
2022/04/02 07:21:01;;;;;;;2.85;1.00;;;;;;;13.92;39.52;95313.88;5114634;28;20023;-31
2022/04/02 07:23:27;;;;;;;3.97;1.20;;;;;;;13.98;39.76;95295.59;5114366;28;20379;-31
2022/04/02 07:25:55;;;;;;;2.53;1.20;;;;;;;13.95;39.56;95312.19;5114260;28;20024;-31
2022/04/02 07:28:23;;;;;;;2.80;1.40;;;;;;;13.91;39.55;95301.47;5114293;28;20028;-31
2022/04/02 07:30:48;;;;;;;3.05;1.45;;;;;;;14.03;39.57;95281.31;5095682;28;20064;-31
2022/04/02 07:33:14;;;;;;;3.47;1.40;;;;;;;14.06;39.54;95306.13;5114425;27;20519;-31
2022/04/02 07:36:01;;;;;;;2.92;1.27;;;;;;;14.12;39.59;95276.94;5134807;27;20027;-31
2022/04/02 07:39:06;;;;;;;4.70;1.88;;;;;;;14.10;39.60;95282.13;5134653;27;20030;-31
2022/04/02 07:41:40;;;;;;;3.78;1.48;;;;;;;14.05;40.00;95293.72;5120281;27;20035;-31
2022/04/02 07:44:24;;;;;;;3.25;1.40;;;;;;;13.95;40.09;95274.78;5133485;27;20031;-31
2022/04/02 07:46:52;;;;;;;3.50;1.30;;;;;;;14.05;39.71;95280.09;5134527;27;20035;-31
2022/04/02 07:49:21;;;;;;;5.22;1.27;;;;;;;13.97;40.34;95272.28;5132981;27;20027;-31
2022/04/02 07:51:52;;;;;;;3.78;1.17;;;;;;;13.73;41.16;95285.34;5134212;27;20042;-31
2022/04/02 07:54:21;;;;;;;3.17;1.23;;;;;;;13.82;41.12;95255.28;5134339;27;20019;-31
2022/04/02 07:56:49;;;;;;;4.25;1.20;;;;;;;13.37;41.73;95258.56;5134221;27;20042;-32
2022/04/02 07:59:31;;;;;;;5.30;1.10;;;;;;;12.35;44.87;95282.56;5124313;27;20023;-31
2022/04/02 08:01:57;;;;;;;3.13;1.10;;;;;;;13.27;43.23;95287.88;5133446;27;20382;-31
2022/04/02 08:04:24;;;;;;;3.97;0.95;;;;;;;13.57;42.32;95302.22;5135976;27;20042;-31
2022/04/02 08:06:52;;;;;;;4.32;1.15;;;;;;;13.71;42.20;95308.88;5136098;27;20095;-31
2022/04/02 08:09:19;;;;;;;7.72;0.98;;;;;;;13.89;41.68;95319.50;5135871;27;20023;-31
2022/04/02 08:11:48;;;;;;;2.88;1.00;;;;;;;14.02;41.72;95317.97;5135887;27;20023;-32
2022/04/02 08:14:15;;;;;;;3.90;1.00;;;;;;;13.83;41.98;95335.81;5135925;27;20114;-31
2022/04/02 08:16:43;;;;;;;4.10;1.00;;;;;;;13.29;42.96;95357.00;5135871;27;20042;-31
2022/04/02 08:19:09;;;;;;;5.22;0.82;;;;;;;13.00;43.23;95362.38;5135700;27;20109;-31
2022/04/02 08:21:36;;;;;;;7.38;1.30;;;;;;;13.38;42.86;95333.59;5135048;27;20348;-31
2022/04/02 08:24:03;;;;;;;3.72;1.05;;;;;;;13.62;42.36;95345.88;5135797;27;20023;-30
2022/04/02 08:26:31;;;;;;;4.32;1.10;;;;;;;13.65;42.00;95344.19;5135410;27;20023;-31
2022/04/02 08:29:13;;;;;;;6.15;1.30;;;;;;;13.52;42.14;95332.84;5135425;27;20107;-31
2022/04/02 08:31:57;;;;;;;4.18;0.70;;;;;;;13.68;41.95;95329.63;5135656;27;20071;-31
2022/04/02 08:34:26;;;;;;;5.82;1.20;;;;;;;13.48;42.19;95335.00;5135678;27;20026;-31
2022/04/02 08:37:20;;;;;;;6.75;0.95;;;;;;;13.66;41.34;95318.44;5135496;27;20049;-31
2022/04/02 08:40:22;;;;;;;5.68;0.85;;;;;;;12.62;43.77;95327.78;5135815;27;20034;-31
2022/04/02 08:43:01;;;;;;;7.45;1.52;;;;;;;12.66;43.32;95327.63;5135381;27;20072;-31
2022/04/02 08:45:32;;;;;;;6.82;1.30;;;;;;;13.36;42.87;95311.53;5135302;27;20030;-31
2022/04/02 08:48:20;;;;;;;3.78;1.17;;;;;;;12.41;44.92;95310.59;5117099;27;20029;-31
2022/04/02 08:50:55;;;;;;;6.72;1.27;;;;;;;12.50;44.59;95326.81;5135345;27;20023;-32
2022/04/02 08:53:41;;;;;;;7.13;1.90;;;;;;;13.12;43.38;95336.09;5135366;27;20034;-31
2022/04/02 08:56:10;;;;;;;8.50;2.53;;;;;;;13.20;43.39;95357.09;5135161;27;20104;-31
2022/04/02 08:58:59;;;;;;;6.43;1.42;;;;;;;13.07;43.20;95361.28;5135091;27;20015;-32
2022/04/02 09:04:53;;;;;;;7.15;1.50;;;;;;;13.62;42.36;95334.22;5135095;27;20384;-31
2022/04/02 09:07:47;;;;;;;5.53;1.70;;;;;;;13.18;43.42;95339.72;5134975;27;20037;-31
2022/04/02 09:11:05;;;;;;;5.85;1.48;;;;;;;13.74;42.19;95337.88;5135001;27;20011;-31
2022/04/02 09:14:09;;;;;;;5.30;1.75;;;;;;;13.95;41.61;95385.78;5134986;27;20091;-31
2022/04/02 09:16:49;;;;;;;6.88;1.67;;;;;;;13.64;41.93;95383.56;5104005;27;20047;-31
2022/04/02 09:19:47;;;;;;;5.72;1.33;;;;;;;13.74;41.41;95357.69;5134776;27;20031;-31
2022/04/02 09:22:54;;;;;;;5.07;1.25;;;;;;;12.94;42.33;95388.75;5091064;27;20475;-31
2022/04/02 09:26:04;;;;;;;5.05;1.05;;;;;;;13.59;41.56;95387.72;5102758;27;20039;-31
2022/04/02 09:28:44;;;;;;;6.95;1.20;;;;;;;13.16;43.14;95391.91;5095188;27;20050;-32
2022/04/02 09:31:40;;;;;;;4.50;1.17;;;;;;;13.38;42.17;95388.06;5134471;27;20051;-31
2022/04/02 09:34:43;;;;;;;4.82;1.50;;;;;;;13.78;41.41;95382.78;5134707;27;20028;-31
2022/04/02 09:37:43;;;;;;;5.50;1.38;;;;;;;13.92;41.20;95390.19;5134952;27;20386;-31
2022/04/02 09:40:10;;;;;;;2.08;1.10;;;;;;;13.78;41.53;95374.59;5134743;27;20018;-31
2022/04/02 09:42:41;;;;;;;4.20;1.17;;;;;;;14.00;41.30;95379.63;5134354;27;20019;-31
2022/04/02 09:45:12;;;;;;;4.25;1.40;;;;;;;13.96;41.21;95360.78;5116142;28;20023;-31
2022/04/02 09:47:49;;;;;;;5.32;1.42;;;;;;;13.87;41.65;95354.66;5134622;27;20026;-31
2022/04/02 09:50:21;;;;;;;3.45;1.65;;;;;;;13.91;41.24;95353.25;5111909;28;20055;-31
2022/04/02 09:52:46;;;;;;;5.28;1.67;;;;;;;13.99;41.41;95359.81;5111984;28;20124;-31
2022/04/02 09:55:14;;;;;;;5.55;2.13;;;;;;;13.99;41.41;95369.94;5111726;28;20024;-31
2022/04/02 09:58:01;;;;;;;3.75;1.40;;;;;;;13.89;41.50;95369.31;5111976;28;20036;-31
2022/04/02 10:00:50;;;;;;;3.88;1.48;;;;;;;14.01;41.23;95365.53;5111595;28;20020;-31
2022/04/02 10:03:27;;;;;;;6.47;1.80;;;;;;;13.94;41.58;95365.94;5111705;28;20048;-31
2022/04/02 10:06:18;;;;;;;6.82;2.97;;;;;;;14.12;41.38;95345.09;5109612;28;20035;-31
2022/04/02 10:12:09;;;;;;;7.30;3.10;;;;;;;14.13;41.81;95339.19;5111330;28;20503;-31
2022/04/02 10:14:38;;;;;;;8.65;4.00;;;;;;;14.25;41.60;95340.81;5111601;28;20038;-31
2022/04/02 10:17:09;;;;;;;8.38;4.07;;;;;;;14.24;41.60;95350.22;5111399;28;20027;-31
2022/04/02 10:19:38;;;;;;;9.32;3.80;;;;;;;14.24;41.73;95358.41;5111857;28;20027;-31
2022/04/02 10:22:09;;;;;;;8.02;3.33;;;;;;;14.08;42.75;95385.47;5111795;28;20023;-31
2022/04/02 10:24:37;;;;;;;9.27;3.33;;;;;;;14.08;42.52;95380.00;5112940;28;20467;-31
2022/04/02 10:27:05;;;;;;;8.73;3.30;;;;;;;14.21;42.11;95396.81;5126838;27;20035;-31
2022/04/02 10:30:00;;;;;;;6.63;2.78;;;;;;;14.14;42.12;95406.13;5111460;28;20532;-31
2022/04/02 10:32:38;;;;;;;6.35;2.75;;;;;;;14.15;42.50;95417.78;5111183;28;20081;-31
2022/04/02 10:35:06;;;;;;;6.50;2.60;;;;;;;13.83;43.12;95444.81;5131114;28;20046;-31
2022/04/02 10:37:45;;;;;;;8.50;2.75;;;;;;;13.72;42.88;95428.28;5131937;27;20032;-31
2022/04/02 10:40:15;;;;;;;8.07;2.28;;;;;;;13.58;43.05;95437.22;5131902;27;20062;-31
2022/04/02 10:42:52;;;;;;;5.65;1.75;;;;;;;13.86;42.55;95405.69;5131957;27;20027;-31
2022/04/02 10:45:20;;;;;;;3.78;2.00;;;;;;;14.00;41.82;95410.38;5116453;27;20023;-31
2022/04/02 10:48:03;;;;;;;4.82;2.13;;;;;;;14.07;41.86;95397.59;5135671;27;20030;-31
2022/04/02 10:50:29;;;;;;;5.55;2.13;;;;;;;14.24;41.36;95382.19;5135389;27;20023;-31
2022/04/02 10:53:03;;;;;;;5.50;2.65;;;;;;;14.39;41.27;95382.91;5135404;27;20417;-31
2022/04/02 10:55:29;;;;;;;5.88;2.38;;;;;;;14.17;41.53;95379.88;5122069;27;20023;-31
2022/04/02 10:57:59;;;;;;;4.03;2.15;;;;;;;14.11;41.67;95373.59;5115131;28;20494;-31
2022/04/02 11:00:28;;;;;;;4.47;2.25;;;;;;;14.16;41.42;95383.84;5121804;27;20033;-31
2022/04/02 11:03:29;;;;;;;5.63;2.53;;;;;;;14.25;41.26;95383.69;5124920;27;20051;-31
2022/04/02 11:05:54;;;;;;;4.60;2.13;;;;;;;14.37;41.24;95390.81;5112563;28;20038;-31
2022/04/02 11:08:22;;;;;;;9.45;3.08;;;;;;;14.23;41.36;95384.19;5114842;28;20036;-31
2022/04/02 11:10:48;;;;;;;5.13;2.83;;;;;;;14.07;42.03;95384.72;5114694;28;20113;-31
2022/04/02 11:13:28;;;;;;;5.75;2.15;;;;;;;14.02;41.85;95421.56;5114567;28;20102;-31
2022/04/02 11:15:53;;;;;;;6.05;2.38;;;;;;;13.94;42.02;95404.09;5114670;28;20016;-31
2022/04/02 11:18:19;;;;;;;8.02;2.30;;;;;;;13.76;42.22;95395.38;5114738;28;20030;-31
2022/04/02 11:20:44;;;;;;;4.57;2.33;;;;;;;13.90;41.88;95416.41;5114632;28;20030;-31
2022/04/02 11:23:32;;;;;;;5.45;2.45;;;;;;;14.04;41.47;95402.00;5114321;28;20130;-31
2022/04/02 11:26:04;;;;;;;6.18;2.30;;;;;;;14.00;41.86;95396.00;5114648;28;20107;-31
2022/04/02 11:28:42;;;;;;;6.15;2.55;;;;;;;14.22;41.60;95401.00;5114375;28;20391;-31
2022/04/02 11:31:11;;;;;;;3.88;2.03;;;;;;;13.99;41.70;95392.50;5112731;28;20487;-31
2022/04/02 11:33:52;;;;;;;6.93;2.35;;;;;;;14.08;41.83;95410.75;5114154;28;20115;-31
2022/04/02 11:36:23;;;;;;;4.85;2.30;;;;;;;14.17;41.65;95415.34;5112520;28;20357;-31
2022/04/02 11:38:48;;;;;;;8.75;3.05;;;;;;;14.06;42.20;95393.38;5114352;28;20023;-31
2022/04/02 11:41:27;;;;;;;9.00;3.38;;;;;;;13.91;42.58;95398.84;5112979;28;20030;-31
2022/04/02 11:44:03;;;;;;;7.40;2.83;;;;;;;13.79;42.72;95387.00;5114239;28;20026;-31
2022/04/02 11:46:29;;;;;;;6.55;2.72;;;;;;;13.40;43.64;95405.44;5114390;28;20019;-31
2022/04/02 11:48:56;;;;;;;4.78;2.13;;;;;;;12.87;44.85;95408.91;5108399;28;20034;-32
2022/04/02 11:51:33;;;;;;;5.70;2.05;;;;;;;13.42;43.38;95418.59;5093751;28;20027;-31
2022/04/02 11:54:04;;;;;;;3.40;1.98;;;;;;;13.49;42.76;95438.03;5093739;28;20031;-31
2022/04/02 11:56:32;;;;;;;6.53;1.92;;;;;;;13.55;43.00;95381.69;5093521;28;20024;-31
2022/04/02 11:59:00;;;;;;;4.90;2.15;;;;;;;13.43;42.42;95401.03;5093371;28;20024;-31
2022/04/02 12:01:39;;;;;;;5.45;1.63;;;;;;;13.01;44.10;95396.53;5093270;28;20028;-31